Vera Cruz, Brazil
Current Conditions -  °F | °C
As of 7:00 AM on Sunday 23 Nov 2014 (Local Time) from SBTC Reporting Station
Light Rain Light Rain  
Wind Chill: 77°   Ceiling: 1200
Heat Index: 78°   Visibility: 4mi
Dew Point: 73°   Wind: 6mph
Humidity: 89%   Direction: 100°E
Pressure: 29.94"   Gusts: NA
Location:  12.96°S, 38.61°W
Report Text: SBTC 231000Z 10005KT 7000 -RA FEW008 BKN012 BKN060 25/23 Q1014
Loading
Personal Weather Stations






























Interactive Weather Map New forecast layout! Learn more

10-Day Weather Forecast

Advertisements
Track Severe Weather on mobile